sensor_id;sensor_type;location;lat;lon;timestamp;P1;durP1;ratioP1;P2;durP2;ratioP2
49384;SDS011;36795;45.028;38.968;2022-11-23T00:02:28;9.82;;;1.70;;
49384;SDS011;36795;45.028;38.968;2022-11-23T00:05:15;5.20;;;1.67;;
49384;SDS011;36795;45.028;38.968;2022-11-23T00:08:00;8.38;;;2.10;;
49384;SDS011;36795;45.028;38.968;2022-11-23T00:10:47;3.58;;;1.50;;
49384;SDS011;36795;45.028;38.968;2022-11-23T00:13:33;8.52;;;1.92;;
49384;SDS011;36795;45.028;38.968;2022-11-23T00:16:21;6.68;;;1.80;;
49384;SDS011;36795;45.028;38.968;2022-11-23T00:19:08;5.85;;;1.90;;
49384;SDS011;36795;45.028;38.968;2022-11-23T00:21:55;9.88;;;2.25;;
49384;SDS011;36795;45.028;38.968;2022-11-23T00:24:40;8.23;;;1.80;;
49384;SDS011;36795;45.028;38.968;2022-11-23T00:27:26;9.00;;;2.10;;
49384;SDS011;36795;45.028;38.968;2022-11-23T00:30:12;6.28;;;1.98;;
49384;SDS011;36795;45.028;38.968;2022-11-23T00:32:59;8.48;;;2.30;;
49384;SDS011;36795;45.028;38.968;2022-11-23T00:35:57;9.55;;;2.00;;
49384;SDS011;36795;45.028;38.968;2022-11-23T00:38:48;10.00;;;2.28;;
49384;SDS011;36795;45.028;38.968;2022-11-23T00:41:34;6.15;;;2.03;;
49384;SDS011;36795;45.028;38.968;2022-11-23T00:44:21;8.50;;;2.03;;
49384;SDS011;36795;45.028;38.968;2022-11-23T00:47:07;7.95;;;2.20;;
49384;SDS011;36795;45.028;38.968;2022-11-23T00:49:54;7.90;;;2.37;;
49384;SDS011;36795;45.028;38.968;2022-11-23T00:52:39;11.30;;;2.50;;
49384;SDS011;36795;45.028;38.968;2022-11-23T00:55:26;13.40;;;2.67;;
49384;SDS011;36795;45.028;38.968;2022-11-23T00:58:11;12.25;;;2.90;;
49384;SDS011;36795;45.028;38.968;2022-11-23T01:01:02;12.88;;;2.40;;
49384;SDS011;36795;45.028;38.968;2022-11-23T01:03:55;6.32;;;2.28;;
49384;SDS011;36795;45.028;38.968;2022-11-23T01:06:46;12.73;;;2.53;;
49384;SDS011;36795;45.028;38.968;2022-11-23T01:09:33;11.77;;;2.60;;
49384;SDS011;36795;45.028;38.968;2022-11-23T01:12:20;13.30;;;3.42;;
49384;SDS011;36795;45.028;38.968;2022-11-23T01:15:05;12.07;;;3.03;;
49384;SDS011;36795;45.028;38.968;2022-11-23T01:17:52;10.23;;;2.70;;
49384;SDS011;36795;45.028;38.968;2022-11-23T01:20:38;11.30;;;3.28;;
49384;SDS011;36795;45.028;38.968;2022-11-23T01:23:29;10.82;;;2.67;;
49384;SDS011;36795;45.028;38.968;2022-11-23T01:26:15;10.23;;;2.90;;
49384;SDS011;36795;45.028;38.968;2022-11-23T01:29:01;9.63;;;2.75;;
49384;SDS011;36795;45.028;38.968;2022-11-23T01:31:48;9.88;;;2.53;;
49384;SDS011;36795;45.028;38.968;2022-11-23T01:34:35;9.02;;;2.42;;
49384;SDS011;36795;45.028;38.968;2022-11-23T01:37:22;11.40;;;2.80;;
49384;SDS011;36795;45.028;38.968;2022-11-23T01:40:09;8.05;;;2.60;;
49384;SDS011;36795;45.028;38.968;2022-11-23T01:42:59;7.90;;;2.47;;
49384;SDS011;36795;45.028;38.968;2022-11-23T01:51:48;9.73;;;2.53;;
49384;SDS011;36795;45.028;38.968;2022-11-23T01:54:42;9.48;;;2.53;;
49384;SDS011;36795;45.028;38.968;2022-11-23T01:57:35;11.73;;;2.60;;
49384;SDS011;36795;45.028;38.968;2022-11-23T02:00:24;8.13;;;2.20;;
49384;SDS011;36795;45.028;38.968;2022-11-23T02:03:11;11.70;;;2.67;;
49384;SDS011;36795;45.028;38.968;2022-11-23T02:06:02;11.57;;;2.70;;
49384;SDS011;36795;45.028;38.968;2022-11-23T02:08:55;7.82;;;2.90;;
49384;SDS011;36795;45.028;38.968;2022-11-23T02:11:41;8.68;;;2.50;;
49384;SDS011;36795;45.028;38.968;2022-11-23T02:14:29;9.35;;;2.67;;
49384;SDS011;36795;45.028;38.968;2022-11-23T02:17:15;14.70;;;3.00;;
49384;SDS011;36795;45.028;38.968;2022-11-23T02:20:03;14.65;;;3.30;;
49384;SDS011;36795;45.028;38.968;2022-11-23T02:25:56;12.73;;;2.95;;
49384;SDS011;36795;45.028;38.968;2022-11-23T02:28:56;11.23;;;2.80;;
49384;SDS011;36795;45.028;38.968;2022-11-23T02:31:50;8.68;;;2.72;;
49384;SDS011;36795;45.028;38.968;2022-11-23T02:34:36;13.93;;;3.12;;
49384;SDS011;36795;45.028;38.968;2022-11-23T02:37:23;12.55;;;3.00;;
49384;SDS011;36795;45.028;38.968;2022-11-23T02:43:28;10.70;;;2.95;;
49384;SDS011;36795;45.028;38.968;2022-11-23T02:46:15;15.32;;;2.90;;
49384;SDS011;36795;45.028;38.968;2022-11-23T02:49:01;10.45;;;2.95;;
49384;SDS011;36795;45.028;38.968;2022-11-23T02:51:47;20.73;;;3.45;;
49384;SDS011;36795;45.028;38.968;2022-11-23T02:54:33;18.00;;;3.53;;
49384;SDS011;36795;45.028;38.968;2022-11-23T02:57:19;19.90;;;3.95;;
49384;SDS011;36795;45.028;38.968;2022-11-23T03:00:06;10.35;;;3.00;;
49384;SDS011;36795;45.028;38.968;2022-11-23T03:02:52;16.45;;;3.78;;
49384;SDS011;36795;45.028;38.968;2022-11-23T03:05:38;10.23;;;2.72;;
49384;SDS011;36795;45.028;38.968;2022-11-23T03:08:24;15.30;;;3.30;;
49384;SDS011;36795;45.028;38.968;2022-11-23T03:11:11;10.57;;;2.90;;
49384;SDS011;36795;45.028;38.968;2022-11-23T03:13:58;12.10;;;3.30;;
49384;SDS011;36795;45.028;38.968;2022-11-23T03:16:45;11.30;;;2.90;;
49384;SDS011;36795;45.028;38.968;2022-11-23T03:19:34;19.20;;;3.78;;
49384;SDS011;36795;45.028;38.968;2022-11-23T03:22:20;14.13;;;3.62;;
49384;SDS011;36795;45.028;38.968;2022-11-23T03:25:06;17.67;;;4.00;;
49384;SDS011;36795;45.028;38.968;2022-11-23T03:27:53;38.80;;;7.32;;
49384;SDS011;36795;45.028;38.968;2022-11-23T03:30:38;18.45;;;4.90;;
49384;SDS011;36795;45.028;38.968;2022-11-23T03:33:27;20.62;;;4.43;;
49384;SDS011;36795;45.028;38.968;2022-11-23T03:36:13;19.85;;;4.87;;
49384;SDS011;36795;45.028;38.968;2022-11-23T03:39:00;13.98;;;3.72;;
49384;SDS011;36795;45.028;38.968;2022-11-23T03:41:46;14.95;;;3.72;;
49384;SDS011;36795;45.028;38.968;2022-11-23T03:44:33;18.17;;;4.50;;
49384;SDS011;36795;45.028;38.968;2022-11-23T03:47:19;16.37;;;3.85;;
49384;SDS011;36795;45.028;38.968;2022-11-23T03:50:06;17.77;;;4.22;;
49384;SDS011;36795;45.028;38.968;2022-11-23T03:52:53;15.07;;;4.00;;
49384;SDS011;36795;45.028;38.968;2022-11-23T03:55:41;26.08;;;7.12;;
49384;SDS011;36795;45.028;38.968;2022-11-23T03:58:29;17.25;;;4.53;;
49384;SDS011;36795;45.028;38.968;2022-11-23T04:01:16;17.33;;;4.20;;
49384;SDS011;36795;45.028;38.968;2022-11-23T04:04:03;19.80;;;4.10;;
49384;SDS011;36795;45.028;38.968;2022-11-23T04:06:50;18.27;;;4.30;;
49384;SDS011;36795;45.028;38.968;2022-11-23T04:09:36;20.23;;;4.32;;
49384;SDS011;36795;45.028;38.968;2022-11-23T04:12:26;18.15;;;4.57;;
49384;SDS011;36795;45.028;38.968;2022-11-23T04:15:14;16.95;;;4.10;;
49384;SDS011;36795;45.028;38.968;2022-11-23T04:18:00;13.62;;;3.92;;
49384;SDS011;36795;45.028;38.968;2022-11-23T04:20:46;15.40;;;4.35;;
49384;SDS011;36795;45.028;38.968;2022-11-23T04:23:33;17.05;;;4.18;;
49384;SDS011;36795;45.028;38.968;2022-11-23T04:26:21;18.70;;;4.95;;
49384;SDS011;36795;45.028;38.968;2022-11-23T04:29:07;18.60;;;4.97;;
49384;SDS011;36795;45.028;38.968;2022-11-23T04:31:54;14.05;;;3.83;;
49384;SDS011;36795;45.028;38.968;2022-11-23T04:34:40;19.77;;;4.62;;
49384;SDS011;36795;45.028;38.968;2022-11-23T04:37:28;24.52;;;6.20;;
49384;SDS011;36795;45.028;38.968;2022-11-23T04:40:15;18.00;;;4.45;;
49384;SDS011;36795;45.028;38.968;2022-11-23T04:43:02;22.10;;;5.93;;
49384;SDS011;36795;45.028;38.968;2022-11-23T04:45:49;20.05;;;5.45;;
49384;SDS011;36795;45.028;38.968;2022-11-23T04:48:36;21.23;;;5.37;;
49384;SDS011;36795;45.028;38.968;2022-11-23T04:51:22;20.33;;;5.25;;
49384;SDS011;36795;45.028;38.968;2022-11-23T04:54:09;22.45;;;5.30;;
49384;SDS011;36795;45.028;38.968;2022-11-23T04:56:58;20.02;;;5.12;;
49384;SDS011;36795;45.028;38.968;2022-11-23T04:59:45;19.52;;;5.35;;
49384;SDS011;36795;45.028;38.968;2022-11-23T05:02:33;15.52;;;4.35;;
49384;SDS011;36795;45.028;38.968;2022-11-23T05:05:19;16.85;;;4.43;;
49384;SDS011;36795;45.028;38.968;2022-11-23T05:08:06;24.55;;;6.28;;
49384;SDS011;36795;45.028;38.968;2022-11-23T05:10:53;20.95;;;5.22;;
49384;SDS011;36795;45.028;38.968;2022-11-23T05:13:40;18.37;;;4.60;;
49384;SDS011;36795;45.028;38.968;2022-11-23T05:16:26;20.88;;;5.15;;
49384;SDS011;36795;45.028;38.968;2022-11-23T05:19:12;16.85;;;4.20;;
49384;SDS011;36795;45.028;38.968;2022-11-23T05:21:59;20.30;;;4.43;;
49384;SDS011;36795;45.028;38.968;2022-11-23T05:24:45;21.27;;;4.35;;
49384;SDS011;36795;45.028;38.968;2022-11-23T05:27:32;22.95;;;5.30;;
49384;SDS011;36795;45.028;38.968;2022-11-23T05:30:19;21.10;;;4.62;;
49384;SDS011;36795;45.028;38.968;2022-11-23T05:33:06;19.92;;;4.90;;
49384;SDS011;36795;45.028;38.968;2022-11-23T05:35:53;18.75;;;4.62;;
49384;SDS011;36795;45.028;38.968;2022-11-23T05:38:43;16.00;;;4.65;;
49384;SDS011;36795;45.028;38.968;2022-11-23T05:41:30;24.60;;;5.47;;
49384;SDS011;36795;45.028;38.968;2022-11-23T05:44:17;19.25;;;5.43;;
49384;SDS011;36795;45.028;38.968;2022-11-23T05:47:03;21.08;;;5.60;;
49384;SDS011;36795;45.028;38.968;2022-11-23T05:49:49;20.80;;;5.43;;
49384;SDS011;36795;45.028;38.968;2022-11-23T05:52:36;22.27;;;5.10;;
49384;SDS011;36795;45.028;38.968;2022-11-23T05:55:22;20.65;;;5.32;;
49384;SDS011;36795;45.028;38.968;2022-11-23T05:58:09;22.77;;;6.12;;
49384;SDS011;36795;45.028;38.968;2022-11-23T06:00:56;17.73;;;4.82;;
49384;SDS011;36795;45.028;38.968;2022-11-23T06:03:48;20.70;;;5.60;;
49384;SDS011;36795;45.028;38.968;2022-11-23T06:06:35;23.42;;;5.07;;
49384;SDS011;36795;45.028;38.968;2022-11-23T06:09:22;17.12;;;5.07;;
49384;SDS011;36795;45.028;38.968;2022-11-23T06:12:10;21.37;;;5.03;;
49384;SDS011;36795;45.028;38.968;2022-11-23T06:14:56;25.58;;;8.48;;
49384;SDS011;36795;45.028;38.968;2022-11-23T06:17:43;21.40;;;5.30;;
49384;SDS011;36795;45.028;38.968;2022-11-23T06:20:29;25.27;;;5.53;;
49384;SDS011;36795;45.028;38.968;2022-11-23T06:23:15;24.12;;;5.50;;
49384;SDS011;36795;45.028;38.968;2022-11-23T06:26:02;22.75;;;5.53;;
49384;SDS011;36795;45.028;38.968;2022-11-23T06:28:48;23.52;;;5.95;;
49384;SDS011;36795;45.028;38.968;2022-11-23T06:31:35;26.92;;;7.03;;
49384;SDS011;36795;45.028;38.968;2022-11-23T06:34:21;24.83;;;6.40;;
49384;SDS011;36795;45.028;38.968;2022-11-23T06:37:08;26.33;;;5.95;;
49384;SDS011;36795;45.028;38.968;2022-11-23T06:39:55;27.10;;;6.12;;
49384;SDS011;36795;45.028;38.968;2022-11-23T06:42:43;22.30;;;6.37;;
49384;SDS011;36795;45.028;38.968;2022-11-23T06:45:30;22.52;;;5.37;;
49384;SDS011;36795;45.028;38.968;2022-11-23T06:48:17;22.08;;;5.87;;
49384;SDS011;36795;45.028;38.968;2022-11-23T06:51:04;22.00;;;5.40;;
49384;SDS011;36795;45.028;38.968;2022-11-23T06:53:51;18.60;;;4.55;;
49384;SDS011;36795;45.028;38.968;2022-11-23T06:56:38;17.77;;;4.35;;
49384;SDS011;36795;45.028;38.968;2022-11-23T06:59:27;19.15;;;4.20;;
49384;SDS011;36795;45.028;38.968;2022-11-23T07:02:14;17.00;;;3.80;;
49384;SDS011;36795;45.028;38.968;2022-11-23T07:05:00;22.80;;;4.72;;
49384;SDS011;36795;45.028;38.968;2022-11-23T07:07:46;14.90;;;3.53;;
49384;SDS011;36795;45.028;38.968;2022-11-23T07:10:34;20.35;;;4.03;;
49384;SDS011;36795;45.028;38.968;2022-11-23T07:13:21;20.55;;;4.03;;
49384;SDS011;36795;45.028;38.968;2022-11-23T07:16:07;14.43;;;3.50;;
49384;SDS011;36795;45.028;38.968;2022-11-23T07:18:54;17.62;;;4.75;;
49384;SDS011;36795;45.028;38.968;2022-11-23T07:21:40;17.75;;;4.15;;
49384;SDS011;36795;45.028;38.968;2022-11-23T07:24:27;16.67;;;3.45;;
49384;SDS011;36795;45.028;38.968;2022-11-23T07:27:17;18.30;;;3.92;;
49384;SDS011;36795;45.028;38.968;2022-11-23T07:30:04;17.45;;;4.40;;
49384;SDS011;36795;45.028;38.968;2022-11-23T07:32:51;13.15;;;2.87;;
49384;SDS011;36795;45.028;38.968;2022-11-23T07:35:38;11.77;;;3.50;;
49384;SDS011;36795;45.028;38.968;2022-11-23T07:38:27;14.52;;;3.50;;
49384;SDS011;36795;45.028;38.968;2022-11-23T07:41:13;13.62;;;3.47;;
49384;SDS011;36795;45.028;38.968;2022-11-23T07:44:01;16.00;;;3.40;;
49384;SDS011;36795;45.028;38.968;2022-11-23T07:46:47;16.73;;;3.40;;
49384;SDS011;36795;45.028;38.968;2022-11-23T07:49:33;11.43;;;3.20;;
49384;SDS011;36795;45.028;38.968;2022-11-23T07:52:19;15.85;;;3.10;;
49384;SDS011;36795;45.028;38.968;2022-11-23T07:55:05;14.05;;;3.30;;
49384;SDS011;36795;45.028;38.968;2022-11-23T07:57:52;17.98;;;3.78;;
49384;SDS011;36795;45.028;38.968;2022-11-23T08:00:39;15.43;;;3.85;;
49384;SDS011;36795;45.028;38.968;2022-11-23T08:03:25;21.48;;;4.80;;
49384;SDS011;36795;45.028;38.968;2022-11-23T08:06:11;16.35;;;4.10;;
49384;SDS011;36795;45.028;38.968;2022-11-23T08:08:58;19.45;;;4.57;;
49384;SDS011;36795;45.028;38.968;2022-11-23T08:11:44;14.60;;;4.07;;
49384;SDS011;36795;45.028;38.968;2022-11-23T08:14:31;19.95;;;4.95;;
49384;SDS011;36795;45.028;38.968;2022-11-23T08:17:17;19.35;;;4.90;;
49384;SDS011;36795;45.028;38.968;2022-11-23T08:20:03;18.25;;;5.22;;
49384;SDS011;36795;45.028;38.968;2022-11-23T08:22:49;18.08;;;5.22;;
49384;SDS011;36795;45.028;38.968;2022-11-23T08:25:36;20.05;;;5.35;;
49384;SDS011;36795;45.028;38.968;2022-11-23T08:28:22;18.48;;;5.32;;
49384;SDS011;36795;45.028;38.968;2022-11-23T08:31:09;20.08;;;6.28;;
49384;SDS011;36795;45.028;38.968;2022-11-23T08:33:56;19.98;;;6.10;;
49384;SDS011;36795;45.028;38.968;2022-11-23T08:36:42;20.95;;;6.40;;
49384;SDS011;36795;45.028;38.968;2022-11-23T08:39:28;23.58;;;7.28;;
49384;SDS011;36795;45.028;38.968;2022-11-23T08:42:14;19.95;;;6.47;;
49384;SDS011;36795;45.028;38.968;2022-11-23T08:45:01;31.55;;;6.78;;
49384;SDS011;36795;45.028;38.968;2022-11-23T08:47:49;25.85;;;7.37;;
49384;SDS011;36795;45.028;38.968;2022-11-23T08:50:35;24.27;;;7.72;;
49384;SDS011;36795;45.028;38.968;2022-11-23T08:53:22;24.17;;;7.43;;
49384;SDS011;36795;45.028;38.968;2022-11-23T08:56:08;23.92;;;7.25;;
49384;SDS011;36795;45.028;38.968;2022-11-23T08:58:55;26.05;;;7.47;;
49384;SDS011;36795;45.028;38.968;2022-11-23T09:01:40;24.40;;;7.95;;
49384;SDS011;36795;45.028;38.968;2022-11-23T09:04:27;25.65;;;8.88;;
49384;SDS011;36795;45.028;38.968;2022-11-23T09:07:14;25.00;;;8.18;;
49384;SDS011;36795;45.028;38.968;2022-11-23T09:10:01;25.73;;;8.10;;
49384;SDS011;36795;45.028;38.968;2022-11-23T09:12:46;23.40;;;7.93;;
49384;SDS011;36795;45.028;38.968;2022-11-23T09:15:33;23.85;;;7.85;;
49384;SDS011;36795;45.028;38.968;2022-11-23T09:18:20;26.42;;;7.90;;
49384;SDS011;36795;45.028;38.968;2022-11-23T09:21:07;21.75;;;7.75;;
49384;SDS011;36795;45.028;38.968;2022-11-23T09:23:54;23.80;;;7.65;;
49384;SDS011;36795;45.028;38.968;2022-11-23T09:26:41;25.00;;;8.23;;
49384;SDS011;36795;45.028;38.968;2022-11-23T09:29:27;24.55;;;8.15;;
49384;SDS011;36795;45.028;38.968;2022-11-23T09:32:13;25.73;;;7.62;;
49384;SDS011;36795;45.028;38.968;2022-11-23T09:34:59;25.73;;;7.37;;
49384;SDS011;36795;45.028;38.968;2022-11-23T09:37:45;25.45;;;7.60;;
49384;SDS011;36795;45.028;38.968;2022-11-23T09:40:32;23.17;;;6.80;;
49384;SDS011;36795;45.028;38.968;2022-11-23T09:46:32;24.05;;;6.30;;
49384;SDS011;36795;45.028;38.968;2022-11-23T09:49:30;25.35;;;6.50;;
49384;SDS011;36795;45.028;38.968;2022-11-23T09:52:24;27.40;;;7.15;;
49384;SDS011;36795;45.028;38.968;2022-11-23T09:55:24;23.05;;;7.37;;
49384;SDS011;36795;45.028;38.968;2022-11-23T09:58:32;23.65;;;7.57;;
49384;SDS011;36795;45.028;38.968;2022-11-23T10:01:25;27.35;;;10.60;;
49384;SDS011;36795;45.028;38.968;2022-11-23T10:04:16;26.30;;;8.05;;
49384;SDS011;36795;45.028;38.968;2022-11-23T10:07:17;27.13;;;7.43;;
49384;SDS011;36795;45.028;38.968;2022-11-23T10:10:37;28.55;;;7.85;;
49384;SDS011;36795;45.028;38.968;2022-11-23T10:16:36;23.30;;;7.20;;
49384;SDS011;36795;45.028;38.968;2022-11-23T10:19:38;28.23;;;8.13;;
49384;SDS011;36795;45.028;38.968;2022-11-23T10:22:41;31.67;;;9.00;;
49384;SDS011;36795;45.028;38.968;2022-11-23T10:25:35;21.15;;;7.12;;
49384;SDS011;36795;45.028;38.968;2022-11-23T10:28:30;27.50;;;6.68;;
49384;SDS011;36795;45.028;38.968;2022-11-23T10:31:19;25.52;;;7.10;;
49384;SDS011;36795;45.028;38.968;2022-11-23T10:34:09;26.08;;;7.82;;
49384;SDS011;36795;45.028;38.968;2022-11-23T10:36:57;24.75;;;6.78;;
49384;SDS011;36795;45.028;38.968;2022-11-23T10:39:43;29.12;;;8.73;;
49384;SDS011;36795;45.028;38.968;2022-11-23T10:42:36;27.60;;;7.15;;
49384;SDS011;36795;45.028;38.968;2022-11-23T10:45:28;25.90;;;7.60;;
49384;SDS011;36795;45.028;38.968;2022-11-23T10:48:32;32.08;;;8.30;;
49384;SDS011;36795;45.028;38.968;2022-11-23T10:51:22;27.62;;;8.30;;
49384;SDS011;36795;45.028;38.968;2022-11-23T10:54:16;23.50;;;7.05;;
49384;SDS011;36795;45.028;38.968;2022-11-23T11:00:21;24.95;;;7.12;;
49384;SDS011;36795;45.028;38.968;2022-11-23T11:03:20;24.37;;;6.97;;
49384;SDS011;36795;45.028;38.968;2022-11-23T11:06:08;27.75;;;8.50;;
49384;SDS011;36795;45.028;38.968;2022-11-23T11:08:56;21.80;;;6.37;;
49384;SDS011;36795;45.028;38.968;2022-11-23T11:11:46;24.00;;;7.43;;
49384;SDS011;36795;45.028;38.968;2022-11-23T11:14:36;29.73;;;7.55;;
49384;SDS011;36795;45.028;38.968;2022-11-23T11:17:26;24.95;;;6.90;;
49384;SDS011;36795;45.028;38.968;2022-11-23T11:20:29;20.98;;;6.30;;
49384;SDS011;36795;45.028;38.968;2022-11-23T11:23:18;26.15;;;6.75;;
49384;SDS011;36795;45.028;38.968;2022-11-23T11:26:10;26.50;;;6.85;;
49384;SDS011;36795;45.028;38.968;2022-11-23T11:29:28;26.80;;;6.57;;
49384;SDS011;36795;45.028;38.968;2022-11-23T11:35:27;21.15;;;6.00;;
49384;SDS011;36795;45.028;38.968;2022-11-23T11:41:09;21.50;;;5.72;;
49384;SDS011;36795;45.028;38.968;2022-11-23T11:44:00;19.12;;;5.30;;
49384;SDS011;36795;45.028;38.968;2022-11-23T11:46:55;18.60;;;5.45;;
49384;SDS011;36795;45.028;38.968;2022-11-23T11:49:46;20.02;;;5.35;;
49384;SDS011;36795;45.028;38.968;2022-11-23T11:52:34;20.70;;;6.57;;
49384;SDS011;36795;45.028;38.968;2022-11-23T12:10:59;18.42;;;5.05;;
49384;SDS011;36795;45.028;38.968;2022-11-23T12:13:51;15.93;;;4.43;;
49384;SDS011;36795;45.028;38.968;2022-11-23T12:17:04;18.83;;;4.70;;
49384;SDS011;36795;45.028;38.968;2022-11-23T12:20:12;18.60;;;4.30;;
49384;SDS011;36795;45.028;38.968;2022-11-23T12:29:30;19.15;;;4.30;;
49384;SDS011;36795;45.028;38.968;2022-11-23T12:41:49;22.35;;;5.95;;
49384;SDS011;36795;45.028;38.968;2022-11-23T12:44:59;22.17;;;4.75;;
49384;SDS011;36795;45.028;38.968;2022-11-23T12:57:27;15.48;;;4.45;;
49384;SDS011;36795;45.028;38.968;2022-11-23T13:00:22;18.33;;;4.62;;
49384;SDS011;36795;45.028;38.968;2022-11-23T13:09:52;19.12;;;5.40;;
49384;SDS011;36795;45.028;38.968;2022-11-23T13:12:48;20.15;;;5.40;;
49384;SDS011;36795;45.028;38.968;2022-11-23T13:21:55;18.02;;;4.97;;
49384;SDS011;36795;45.028;38.968;2022-11-23T13:30:37;22.10;;;5.37;;
49384;SDS011;36795;45.028;38.968;2022-11-23T13:33:27;17.50;;;4.43;;
49384;SDS011;36795;45.028;38.968;2022-11-23T13:42:24;21.50;;;5.75;;
49384;SDS011;36795;45.028;38.968;2022-11-23T13:48:04;23.45;;;6.22;;
49384;SDS011;36795;45.028;38.968;2022-11-23T13:50:55;22.08;;;5.53;;
49384;SDS011;36795;45.028;38.968;2022-11-23T13:53:45;21.10;;;6.55;;
49384;SDS011;36795;45.028;38.968;2022-11-23T13:56:41;22.23;;;5.80;;
49384;SDS011;36795;45.028;38.968;2022-11-23T13:59:29;20.08;;;5.65;;
49384;SDS011;36795;45.028;38.968;2022-11-23T14:05:29;22.08;;;6.45;;
49384;SDS011;36795;45.028;38.968;2022-11-23T14:08:35;29.55;;;7.37;;
49384;SDS011;36795;45.028;38.968;2022-11-23T14:11:24;25.40;;;7.12;;
49384;SDS011;36795;45.028;38.968;2022-11-23T14:14:14;20.48;;;5.70;;
49384;SDS011;36795;45.028;38.968;2022-11-23T14:17:19;28.92;;;5.05;;
49384;SDS011;36795;45.028;38.968;2022-11-23T14:23:49;22.60;;;5.20;;
49384;SDS011;36795;45.028;38.968;2022-11-23T14:30:04;23.02;;;6.93;;
49384;SDS011;36795;45.028;38.968;2022-11-23T14:42:22;22.10;;;6.15;;
49384;SDS011;36795;45.028;38.968;2022-11-23T14:45:13;25.30;;;6.95;;
49384;SDS011;36795;45.028;38.968;2022-11-23T14:51:10;32.58;;;7.15;;
49384;SDS011;36795;45.028;38.968;2022-11-23T14:53:59;24.10;;;6.40;;
49384;SDS011;36795;45.028;38.968;2022-11-23T14:56:56;24.27;;;7.60;;
49384;SDS011;36795;45.028;38.968;2022-11-23T14:59:49;20.48;;;5.93;;
49384;SDS011;36795;45.028;38.968;2022-11-23T15:02:38;24.25;;;6.05;;
49384;SDS011;36795;45.028;38.968;2022-11-23T15:05:26;27.85;;;6.68;;
49384;SDS011;36795;45.028;38.968;2022-11-23T15:08:18;20.92;;;5.22;;
49384;SDS011;36795;45.028;38.968;2022-11-23T15:11:16;23.23;;;6.12;;
49384;SDS011;36795;45.028;38.968;2022-11-23T15:14:18;20.25;;;6.12;;
49384;SDS011;36795;45.028;38.968;2022-11-23T15:17:14;23.35;;;5.65;;
49384;SDS011;36795;45.028;38.968;2022-11-23T15:20:01;21.50;;;6.05;;
49384;SDS011;36795;45.028;38.968;2022-11-23T15:22:49;23.40;;;7.15;;
49384;SDS011;36795;45.028;38.968;2022-11-23T15:25:35;23.98;;;6.28;;
49384;SDS011;36795;45.028;38.968;2022-11-23T15:28:25;25.05;;;5.65;;
49384;SDS011;36795;45.028;38.968;2022-11-23T15:34:12;26.00;;;6.90;;
49384;SDS011;36795;45.028;38.968;2022-11-23T15:37:01;25.67;;;7.53;;
49384;SDS011;36795;45.028;38.968;2022-11-23T15:39:47;26.00;;;7.30;;
49384;SDS011;36795;45.028;38.968;2022-11-23T15:42:34;35.10;;;8.20;;
49384;SDS011;36795;45.028;38.968;2022-11-23T15:48:37;25.23;;;8.00;;
49384;SDS011;36795;45.028;38.968;2022-11-23T15:51:27;28.20;;;7.37;;
49384;SDS011;36795;45.028;38.968;2022-11-23T15:54:25;27.98;;;8.18;;
49384;SDS011;36795;45.028;38.968;2022-11-23T15:57:18;29.67;;;11.50;;
49384;SDS011;36795;45.028;38.968;2022-11-23T16:00:07;27.70;;;8.80;;
49384;SDS011;36795;45.028;38.968;2022-11-23T16:06:16;29.77;;;8.13;;
49384;SDS011;36795;45.028;38.968;2022-11-23T16:12:26;31.50;;;9.60;;
49384;SDS011;36795;45.028;38.968;2022-11-23T16:18:21;33.47;;;10.35;;
49384;SDS011;36795;45.028;38.968;2022-11-23T16:21:12;29.95;;;11.75;;
49384;SDS011;36795;45.028;38.968;2022-11-23T16:24:01;33.63;;;12.10;;
49384;SDS011;36795;45.028;38.968;2022-11-23T16:26:48;33.05;;;11.80;;
49384;SDS011;36795;45.028;38.968;2022-11-23T16:29:35;30.42;;;11.30;;
49384;SDS011;36795;45.028;38.968;2022-11-23T16:32:26;36.75;;;12.50;;
49384;SDS011;36795;45.028;38.968;2022-11-23T16:35:14;32.80;;;13.45;;
49384;SDS011;36795;45.028;38.968;2022-11-23T16:38:02;29.90;;;12.13;;
49384;SDS011;36795;45.028;38.968;2022-11-23T16:40:49;29.63;;;12.82;;
49384;SDS011;36795;45.028;38.968;2022-11-23T16:43:35;30.02;;;11.70;;
49384;SDS011;36795;45.028;38.968;2022-11-23T16:46:21;28.75;;;9.65;;
49384;SDS011;36795;45.028;38.968;2022-11-23T16:49:17;25.17;;;8.35;;
49384;SDS011;36795;45.028;38.968;2022-11-23T16:52:06;26.02;;;7.82;;
49384;SDS011;36795;45.028;38.968;2022-11-23T16:54:55;33.38;;;11.02;;
49384;SDS011;36795;45.028;38.968;2022-11-23T16:57:41;26.15;;;8.60;;
49384;SDS011;36795;45.028;38.968;2022-11-23T17:00:28;28.10;;;9.02;;
49384;SDS011;36795;45.028;38.968;2022-11-23T17:03:31;24.90;;;8.85;;
49384;SDS011;36795;45.028;38.968;2022-11-23T17:06:18;26.45;;;9.15;;
49384;SDS011;36795;45.028;38.968;2022-11-23T17:09:07;43.25;;;10.88;;
49384;SDS011;36795;45.028;38.968;2022-11-23T17:11:54;28.12;;;9.50;;
49384;SDS011;36795;45.028;38.968;2022-11-23T17:14:40;26.62;;;10.02;;
49384;SDS011;36795;45.028;38.968;2022-11-23T17:17:27;26.15;;;10.13;;
49384;SDS011;36795;45.028;38.968;2022-11-23T17:20:14;35.33;;;15.85;;
49384;SDS011;36795;45.028;38.968;2022-11-23T17:23:02;30.88;;;10.20;;
49384;SDS011;36795;45.028;38.968;2022-11-23T17:25:47;32.70;;;11.15;;
49384;SDS011;36795;45.028;38.968;2022-11-23T17:28:34;28.08;;;10.88;;
49384;SDS011;36795;45.028;38.968;2022-11-23T17:31:19;26.10;;;10.10;;
49384;SDS011;36795;45.028;38.968;2022-11-23T17:34:07;27.90;;;10.10;;
49384;SDS011;36795;45.028;38.968;2022-11-23T17:36:53;27.50;;;9.73;;
49384;SDS011;36795;45.028;38.968;2022-11-23T17:39:39;26.60;;;10.50;;
49384;SDS011;36795;45.028;38.968;2022-11-23T17:42:25;37.20;;;10.98;;
49384;SDS011;36795;45.028;38.968;2022-11-23T17:45:11;30.33;;;10.85;;
49384;SDS011;36795;45.028;38.968;2022-11-23T17:47:57;28.98;;;9.65;;
49384;SDS011;36795;45.028;38.968;2022-11-23T17:50:44;31.95;;;10.98;;
49384;SDS011;36795;45.028;38.968;2022-11-23T17:53:31;31.25;;;9.93;;
49384;SDS011;36795;45.028;38.968;2022-11-23T17:56:19;25.40;;;10.38;;
49384;SDS011;36795;45.028;38.968;2022-11-23T17:59:07;25.75;;;10.65;;
49384;SDS011;36795;45.028;38.968;2022-11-23T18:01:53;33.47;;;11.57;;
49384;SDS011;36795;45.028;38.968;2022-11-23T18:04:40;25.95;;;11.15;;
49384;SDS011;36795;45.028;38.968;2022-11-23T18:07:26;32.38;;;11.30;;
49384;SDS011;36795;45.028;38.968;2022-11-23T18:10:12;31.60;;;11.50;;
49384;SDS011;36795;45.028;38.968;2022-11-23T18:12:58;27.70;;;11.10;;
49384;SDS011;36795;45.028;38.968;2022-11-23T18:15:45;34.00;;;14.10;;
49384;SDS011;36795;45.028;38.968;2022-11-23T18:18:31;30.85;;;12.75;;
49384;SDS011;36795;45.028;38.968;2022-11-23T18:21:18;31.85;;;11.88;;
49384;SDS011;36795;45.028;38.968;2022-11-23T18:24:04;31.98;;;11.85;;
49384;SDS011;36795;45.028;38.968;2022-11-23T18:26:53;28.70;;;11.40;;
49384;SDS011;36795;45.028;38.968;2022-11-23T18:29:42;29.12;;;11.85;;
49384;SDS011;36795;45.028;38.968;2022-11-23T18:32:31;34.22;;;12.37;;
49384;SDS011;36795;45.028;38.968;2022-11-23T18:35:17;30.70;;;12.25;;
49384;SDS011;36795;45.028;38.968;2022-11-23T18:38:03;28.17;;;11.57;;
49384;SDS011;36795;45.028;38.968;2022-11-23T18:40:49;31.33;;;12.52;;
49384;SDS011;36795;45.028;38.968;2022-11-23T18:43:35;34.42;;;12.75;;